sensor_id;sensor_type;location;lat;lon;timestamp;pressure;altitude;pressure_sealevel;temperature;humidity
9905;BME280;4991;43.566;27.820;2022-09-19T00:00:42;98638.41;;;11.53;100.00
9905;BME280;4991;43.566;27.820;2022-09-19T00:03:09;98635.94;;;11.43;100.00
9905;BME280;4991;43.566;27.820;2022-09-19T00:05:40;98639.63;;;11.39;100.00
9905;BME280;4991;43.566;27.820;2022-09-19T00:08:08;98635.56;;;11.36;100.00
9905;BME280;4991;43.566;27.820;2022-09-19T00:10:38;98633.28;;;11.30;100.00
9905;BME280;4991;43.566;27.820;2022-09-19T00:13:06;98629.75;;;11.29;100.00
9905;BME280;4991;43.566;27.820;2022-09-19T00:15:38;98635.53;;;11.28;100.00
9905;BME280;4991;43.566;27.820;2022-09-19T00:18:11;98627.34;;;11.28;100.00
9905;BME280;4991;43.566;27.820;2022-09-19T00:20:43;98630.38;;;11.26;100.00
9905;BME280;4991;43.566;27.820;2022-09-19T00:23:10;98628.78;;;11.25;100.00
9905;BME280;4991;43.566;27.820;2022-09-19T00:26:06;98626.56;;;11.27;100.00
9905;BME280;4991;43.566;27.820;2022-09-19T00:28:33;98631.97;;;11.19;100.00
9905;BME280;4991;43.566;27.820;2022-09-19T00:30:59;98629.69;;;11.21;100.00
9905;BME280;4991;43.566;27.820;2022-09-19T00:33:29;98644.28;;;11.16;100.00
9905;BME280;4991;43.566;27.820;2022-09-19T00:35:56;98641.53;;;11.16;100.00
9905;BME280;4991;43.566;27.820;2022-09-19T00:38:24;98647.81;;;11.17;100.00
9905;BME280;4991;43.566;27.820;2022-09-19T00:40:50;98656.56;;;11.05;100.00
9905;BME280;4991;43.566;27.820;2022-09-19T00:43:18;98653.63;;;11.02;100.00
9905;BME280;4991;43.566;27.820;2022-09-19T00:45:45;98655.22;;;11.03;100.00
9905;BME280;4991;43.566;27.820;2022-09-19T00:48:14;98663.38;;;10.94;100.00
9905;BME280;4991;43.566;27.820;2022-09-19T00:50:44;98666.09;;;10.94;100.00
9905;BME280;4991;43.566;27.820;2022-09-19T00:53:17;98664.41;;;10.85;100.00
9905;BME280;4991;43.566;27.820;2022-09-19T00:55:45;98666.81;;;10.86;100.00
9905;BME280;4991;43.566;27.820;2022-09-19T00:58:27;98673.56;;;10.89;100.00
9905;BME280;4991;43.566;27.820;2022-09-19T01:00:55;98665.72;;;10.87;100.00
9905;BME280;4991;43.566;27.820;2022-09-19T01:03:21;98669.97;;;10.80;100.00
9905;BME280;4991;43.566;27.820;2022-09-19T01:06:13;98671.59;;;10.81;100.00
9905;BME280;4991;43.566;27.820;2022-09-19T01:14:22;98669.28;;;10.74;100.00
9905;BME280;4991;43.566;27.820;2022-09-19T01:16:58;98663.16;;;10.69;100.00
9905;BME280;4991;43.566;27.820;2022-09-19T01:30:25;98671.63;;;10.67;100.00
9905;BME280;4991;43.566;27.820;2022-09-19T01:33:14;98669.22;;;10.66;100.00
9905;BME280;4991;43.566;27.820;2022-09-19T01:35:46;98666.50;;;10.66;100.00
9905;BME280;4991;43.566;27.820;2022-09-19T01:38:19;98667.91;;;10.63;100.00
9905;BME280;4991;43.566;27.820;2022-09-19T01:40:49;98674.59;;;10.57;100.00
9905;BME280;4991;43.566;27.820;2022-09-19T01:43:15;98668.13;;;10.53;100.00
9905;BME280;4991;43.566;27.820;2022-09-19T01:45:42;98663.59;;;10.49;100.00
9905;BME280;4991;43.566;27.820;2022-09-19T01:51:41;98677.13;;;10.40;100.00
9905;BME280;4991;43.566;27.820;2022-09-19T01:59:59;98656.38;;;10.30;100.00
9905;BME280;4991;43.566;27.820;2022-09-19T02:10:26;98666.03;;;10.36;100.00
9905;BME280;4991;43.566;27.820;2022-09-19T02:12:53;98655.78;;;10.33;100.00
9905;BME280;4991;43.566;27.820;2022-09-19T02:15:24;98665.84;;;10.33;100.00
9905;BME280;4991;43.566;27.820;2022-09-19T02:20:33;98678.25;;;10.25;100.00
9905;BME280;4991;43.566;27.820;2022-09-19T02:23:06;98677.03;;;10.31;100.00
9905;BME280;4991;43.566;27.820;2022-09-19T02:25:34;98667.06;;;10.27;100.00
9905;BME280;4991;43.566;27.820;2022-09-19T02:28:17;98664.97;;;10.24;100.00
9905;BME280;4991;43.566;27.820;2022-09-19T02:30:47;98675.03;;;10.23;100.00
9905;BME280;4991;43.566;27.820;2022-09-19T02:33:13;98676.47;;;10.21;100.00
9905;BME280;4991;43.566;27.820;2022-09-19T02:36:02;98671.91;;;10.16;100.00
9905;BME280;4991;43.566;27.820;2022-09-19T02:38:43;98683.63;;;10.17;100.00
9905;BME280;4991;43.566;27.820;2022-09-19T02:41:22;98678.59;;;10.10;100.00
9905;BME280;4991;43.566;27.820;2022-09-19T02:43:59;98687.63;;;10.06;100.00
9905;BME280;4991;43.566;27.820;2022-09-19T02:46:35;98693.06;;;10.06;100.00
9905;BME280;4991;43.566;27.820;2022-09-19T02:51:53;98689.22;;;9.93;100.00
9905;BME280;4991;43.566;27.820;2022-09-19T02:54:20;98696.91;;;9.91;100.00
9905;BME280;4991;43.566;27.820;2022-09-19T02:56:49;98691.47;;;9.91;100.00
9905;BME280;4991;43.566;27.820;2022-09-19T02:59:22;98708.97;;;9.85;100.00
9905;BME280;4991;43.566;27.820;2022-09-19T03:01:52;98705.94;;;9.87;100.00
9905;BME280;4991;43.566;27.820;2022-09-19T03:04:24;98704.66;;;9.84;100.00
9905;BME280;4991;43.566;27.820;2022-09-19T03:07:06;98710.69;;;9.81;100.00
9905;BME280;4991;43.566;27.820;2022-09-19T03:09:38;98724.38;;;9.76;100.00
9905;BME280;4991;43.566;27.820;2022-09-19T03:12:23;98719.72;;;9.63;100.00
9905;BME280;4991;43.566;27.820;2022-09-19T03:14:51;98716.59;;;9.56;100.00
9905;BME280;4991;43.566;27.820;2022-09-19T03:17:36;98728.25;;;9.57;100.00
9905;BME280;4991;43.566;27.820;2022-09-19T03:20:05;98721.50;;;9.54;100.00
9905;BME280;4991;43.566;27.820;2022-09-19T03:22:39;98722.81;;;9.57;100.00
9905;BME280;4991;43.566;27.820;2022-09-19T03:25:06;98711.94;;;9.57;100.00
9905;BME280;4991;43.566;27.820;2022-09-19T03:27:32;98718.72;;;9.59;100.00
9905;BME280;4991;43.566;27.820;2022-09-19T03:29:58;98725.03;;;9.55;100.00
9905;BME280;4991;43.566;27.820;2022-09-19T03:32:23;98725.75;;;9.60;100.00
9905;BME280;4991;43.566;27.820;2022-09-19T03:34:51;98729.28;;;9.61;100.00
9905;BME280;4991;43.566;27.820;2022-09-19T03:37:21;98736.91;;;9.59;100.00
9905;BME280;4991;43.566;27.820;2022-09-19T03:39:47;98735.63;;;9.56;100.00
9905;BME280;4991;43.566;27.820;2022-09-19T03:42:12;98732.59;;;9.58;100.00
9905;BME280;4991;43.566;27.820;2022-09-19T03:44:40;98730.69;;;9.58;100.00
9905;BME280;4991;43.566;27.820;2022-09-19T03:47:06;98730.09;;;9.61;100.00
9905;BME280;4991;43.566;27.820;2022-09-19T03:49:31;98732.00;;;9.61;100.00
9905;BME280;4991;43.566;27.820;2022-09-19T03:51:57;98730.88;;;9.62;100.00
9905;BME280;4991;43.566;27.820;2022-09-19T03:54:24;98730.41;;;9.60;100.00
9905;BME280;4991;43.566;27.820;2022-09-19T03:56:49;98729.56;;;9.59;100.00
9905;BME280;4991;43.566;27.820;2022-09-19T03:59:15;98740.53;;;9.54;100.00
9905;BME280;4991;43.566;27.820;2022-09-19T04:01:40;98743.78;;;9.56;100.00
9905;BME280;4991;43.566;27.820;2022-09-19T04:04:07;98745.06;;;9.59;100.00
9905;BME280;4991;43.566;27.820;2022-09-19T04:06:33;98743.38;;;9.63;100.00
9905;BME280;4991;43.566;27.820;2022-09-19T04:08:58;98741.41;;;9.68;100.00
9905;BME280;4991;43.566;27.820;2022-09-19T04:11:26;98736.13;;;9.72;100.00
9905;BME280;4991;43.566;27.820;2022-09-19T04:13:53;98734.84;;;9.69;100.00
9905;BME280;4991;43.566;27.820;2022-09-19T04:16:20;98744.38;;;9.67;100.00
9905;BME280;4991;43.566;27.820;2022-09-19T04:18:45;98747.53;;;9.74;100.00
9905;BME280;4991;43.566;27.820;2022-09-19T04:21:15;98746.34;;;9.80;100.00
9905;BME280;4991;43.566;27.820;2022-09-19T04:23:43;98749.56;;;9.82;100.00
9905;BME280;4991;43.566;27.820;2022-09-19T04:26:10;98746.44;;;9.88;100.00
9905;BME280;4991;43.566;27.820;2022-09-19T04:28:37;98739.00;;;9.94;100.00
9905;BME280;4991;43.566;27.820;2022-09-19T04:31:05;98735.06;;;10.00;100.00
9905;BME280;4991;43.566;27.820;2022-09-19T04:33:35;98739.88;;;10.08;100.00
9905;BME280;4991;43.566;27.820;2022-09-19T04:36:03;98739.47;;;10.14;100.00
9905;BME280;4991;43.566;27.820;2022-09-19T04:38:32;98740.44;;;10.18;100.00
9905;BME280;4991;43.566;27.820;2022-09-19T04:40:59;98746.63;;;10.24;100.00
9905;BME280;4991;43.566;27.820;2022-09-19T04:43:26;98749.84;;;10.26;100.00
9905;BME280;4991;43.566;27.820;2022-09-19T04:45:55;98750.22;;;10.33;100.00
9905;BME280;4991;43.566;27.820;2022-09-19T04:48:22;98746.63;;;10.37;100.00
9905;BME280;4991;43.566;27.820;2022-09-19T04:50:49;98744.28;;;10.45;100.00
9905;BME280;4991;43.566;27.820;2022-09-19T04:53:17;98747.09;;;10.53;100.00
9905;BME280;4991;43.566;27.820;2022-09-19T04:55:48;98755.34;;;10.62;100.00
9905;BME280;4991;43.566;27.820;2022-09-19T04:58:14;98750.00;;;10.70;100.00
9905;BME280;4991;43.566;27.820;2022-09-19T05:00:44;98757.13;;;10.80;100.00
9905;BME280;4991;43.566;27.820;2022-09-19T05:03:16;98761.56;;;10.89;100.00
9905;BME280;4991;43.566;27.820;2022-09-19T05:05:44;98756.91;;;10.90;100.00
9905;BME280;4991;43.566;27.820;2022-09-19T05:08:12;98761.16;;;10.96;100.00
9905;BME280;4991;43.566;27.820;2022-09-19T05:10:41;98758.78;;;11.03;100.00
9905;BME280;4991;43.566;27.820;2022-09-19T05:13:08;98755.47;;;11.06;100.00
9905;BME280;4991;43.566;27.820;2022-09-19T05:15:34;98734.44;;;11.06;100.00
9905;BME280;4991;43.566;27.820;2022-09-19T05:18:00;98748.97;;;11.15;100.00
9905;BME280;4991;43.566;27.820;2022-09-19T05:20:25;98744.19;;;11.21;100.00
9905;BME280;4991;43.566;27.820;2022-09-19T05:22:54;98743.91;;;11.22;100.00
9905;BME280;4991;43.566;27.820;2022-09-19T05:25:26;98730.16;;;11.27;100.00
9905;BME280;4991;43.566;27.820;2022-09-19T05:27:52;98730.50;;;11.34;100.00
9905;BME280;4991;43.566;27.820;2022-09-19T05:30:18;98729.47;;;11.44;100.00
9905;BME280;4991;43.566;27.820;2022-09-19T05:32:46;98724.66;;;11.49;100.00
9905;BME280;4991;43.566;27.820;2022-09-19T05:35:12;98735.31;;;11.59;100.00
9905;BME280;4991;43.566;27.820;2022-09-19T05:37:42;98736.84;;;11.65;100.00
9905;BME280;4991;43.566;27.820;2022-09-19T05:40:08;98738.31;;;11.72;100.00
9905;BME280;4991;43.566;27.820;2022-09-19T05:42:45;98742.84;;;11.76;100.00
9905;BME280;4991;43.566;27.820;2022-09-19T05:45:16;98743.50;;;11.82;100.00
9905;BME280;4991;43.566;27.820;2022-09-19T05:47:42;98739.03;;;11.86;100.00
9905;BME280;4991;43.566;27.820;2022-09-19T05:50:10;98742.13;;;11.93;100.00
9905;BME280;4991;43.566;27.820;2022-09-19T05:52:40;98740.69;;;11.95;100.00
9905;BME280;4991;43.566;27.820;2022-09-19T05:55:25;98741.03;;;12.02;100.00
9905;BME280;4991;43.566;27.820;2022-09-19T05:57:53;98751.53;;;12.09;100.00
9905;BME280;4991;43.566;27.820;2022-09-19T06:00:21;98753.00;;;12.15;100.00
9905;BME280;4991;43.566;27.820;2022-09-19T06:03:00;98746.25;;;12.21;100.00
9905;BME280;4991;43.566;27.820;2022-09-19T06:05:29;98740.50;;;12.31;100.00
9905;BME280;4991;43.566;27.820;2022-09-19T06:07:59;98755.97;;;12.44;100.00
9905;BME280;4991;43.566;27.820;2022-09-19T06:10:26;98759.69;;;12.48;100.00
9905;BME280;4991;43.566;27.820;2022-09-19T06:12:55;98755.69;;;12.54;100.00
9905;BME280;4991;43.566;27.820;2022-09-19T06:15:22;98766.28;;;12.55;100.00
9905;BME280;4991;43.566;27.820;2022-09-19T06:17:56;98764.38;;;12.56;100.00
9905;BME280;4991;43.566;27.820;2022-09-19T06:20:22;98766.00;;;12.65;100.00
9905;BME280;4991;43.566;27.820;2022-09-19T06:22:48;98762.47;;;12.73;100.00
9905;BME280;4991;43.566;27.820;2022-09-19T06:25:16;98753.84;;;12.80;100.00
9905;BME280;4991;43.566;27.820;2022-09-19T06:27:41;98759.31;;;12.80;100.00
9905;BME280;4991;43.566;27.820;2022-09-19T06:30:11;98759.78;;;12.90;100.00
9905;BME280;4991;43.566;27.820;2022-09-19T06:32:38;98778.50;;;13.06;100.00
9905;BME280;4991;43.566;27.820;2022-09-19T06:35:04;98774.78;;;13.10;100.00
9905;BME280;4991;43.566;27.820;2022-09-19T06:37:30;98777.69;;;13.22;100.00
9905;BME280;4991;43.566;27.820;2022-09-19T06:39:56;98783.81;;;13.36;100.00
9905;BME280;4991;43.566;27.820;2022-09-19T06:42:22;98788.16;;;13.46;100.00
9905;BME280;4991;43.566;27.820;2022-09-19T06:44:48;98787.66;;;13.61;100.00
9905;BME280;4991;43.566;27.820;2022-09-19T06:47:15;98787.50;;;13.66;100.00
9905;BME280;4991;43.566;27.820;2022-09-19T06:49:41;98787.47;;;13.83;100.00
9905;BME280;4991;43.566;27.820;2022-09-19T06:52:08;98786.81;;;13.94;100.00
9905;BME280;4991;43.566;27.820;2022-09-19T06:54:34;98778.41;;;13.99;100.00
9905;BME280;4991;43.566;27.820;2022-09-19T06:57:00;98782.09;;;14.03;100.00
9905;BME280;4991;43.566;27.820;2022-09-19T06:59:26;98784.97;;;14.15;100.00
9905;BME280;4991;43.566;27.820;2022-09-19T07:01:51;98782.41;;;14.10;100.00
9905;BME280;4991;43.566;27.820;2022-09-19T07:04:19;98780.44;;;14.19;100.00
9905;BME280;4991;43.566;27.820;2022-09-19T07:06:46;98781.59;;;14.27;100.00
9905;BME280;4991;43.566;27.820;2022-09-19T07:09:11;98775.13;;;14.32;100.00
9905;BME280;4991;43.566;27.820;2022-09-19T07:11:38;98774.13;;;14.36;100.00
9905;BME280;4991;43.566;27.820;2022-09-19T07:14:05;98779.72;;;14.48;100.00
9905;BME280;4991;43.566;27.820;2022-09-19T07:16:31;98776.13;;;14.56;100.00
9905;BME280;4991;43.566;27.820;2022-09-19T07:18:57;98779.50;;;14.62;100.00
9905;BME280;4991;43.566;27.820;2022-09-19T07:21:23;98782.53;;;14.69;100.00
9905;BME280;4991;43.566;27.820;2022-09-19T07:23:49;98780.38;;;14.74;100.00
9905;BME280;4991;43.566;27.820;2022-09-19T07:26:16;98769.38;;;14.83;100.00
9905;BME280;4991;43.566;27.820;2022-09-19T07:28:41;98776.69;;;14.99;100.00
9905;BME280;4991;43.566;27.820;2022-09-19T07:31:07;98772.88;;;15.12;100.00
9905;BME280;4991;43.566;27.820;2022-09-19T07:33:33;98773.97;;;15.20;100.00
9905;BME280;4991;43.566;27.820;2022-09-19T07:35:59;98772.16;;;15.24;100.00
9905;BME280;4991;43.566;27.820;2022-09-19T07:38:26;98776.97;;;15.27;100.00
9905;BME280;4991;43.566;27.820;2022-09-19T07:40:53;98781.81;;;15.30;100.00
9905;BME280;4991;43.566;27.820;2022-09-19T07:43:20;98769.47;;;15.36;100.00
9905;BME280;4991;43.566;27.820;2022-09-19T07:45:47;98781.56;;;15.43;100.00
9905;BME280;4991;43.566;27.820;2022-09-19T07:48:14;98779.25;;;15.45;100.00
9905;BME280;4991;43.566;27.820;2022-09-19T07:50:41;98777.25;;;15.55;100.00
9905;BME280;4991;43.566;27.820;2022-09-19T07:53:19;98777.88;;;15.72;100.00
9905;BME280;4991;43.566;27.820;2022-09-19T07:55:51;98767.78;;;15.85;100.00
9905;BME280;4991;43.566;27.820;2022-09-19T07:58:22;98766.50;;;15.82;100.00
9905;BME280;4991;43.566;27.820;2022-09-19T08:00:48;98759.06;;;15.83;100.00
9905;BME280;4991;43.566;27.820;2022-09-19T08:03:17;98770.78;;;15.92;100.00
9905;BME280;4991;43.566;27.820;2022-09-19T08:05:46;98764.50;;;16.03;100.00
9905;BME280;4991;43.566;27.820;2022-09-19T08:08:14;98761.75;;;16.15;99.09
9905;BME280;4991;43.566;27.820;2022-09-19T08:10:41;98761.53;;;16.20;95.29
9905;BME280;4991;43.566;27.820;2022-09-19T08:13:08;98757.22;;;16.31;98.68
9905;BME280;4991;43.566;27.820;2022-09-19T08:15:35;98760.88;;;16.35;98.50
9905;BME280;4991;43.566;27.820;2022-09-19T08:18:02;98761.47;;;16.41;93.88
9905;BME280;4991;43.566;27.820;2022-09-19T08:20:31;98753.34;;;16.44;89.58
9905;BME280;4991;43.566;27.820;2022-09-19T08:23:22;98765.13;;;16.45;86.99
9905;BME280;4991;43.566;27.820;2022-09-19T08:25:48;98764.91;;;16.38;78.09
9905;BME280;4991;43.566;27.820;2022-09-19T08:28:17;98763.50;;;16.32;80.80
9905;BME280;4991;43.566;27.820;2022-09-19T08:30:45;98758.38;;;16.42;82.96
9905;BME280;4991;43.566;27.820;2022-09-19T08:33:11;98763.31;;;16.49;82.75
9905;BME280;4991;43.566;27.820;2022-09-19T08:35:39;98751.97;;;16.50;81.25
9905;BME280;4991;43.566;27.820;2022-09-19T08:38:08;98748.09;;;16.63;80.05
9905;BME280;4991;43.566;27.820;2022-09-19T08:44:10;98751.84;;;16.83;76.37
9905;BME280;4991;43.566;27.820;2022-09-19T08:49:03;98744.28;;;16.92;74.75
9905;BME280;4991;43.566;27.820;2022-09-19T08:52:02;98732.81;;;17.02;76.11
9905;BME280;4991;43.566;27.820;2022-09-19T08:56:59;98731.25;;;17.29;71.54
9905;BME280;4991;43.566;27.820;2022-09-19T08:59:30;98728.13;;;17.30;72.26
9905;BME280;4991;43.566;27.820;2022-09-19T09:02:05;98730.50;;;17.44;73.32
9905;BME280;4991;43.566;27.820;2022-09-19T09:04:34;98721.78;;;17.42;68.58
9905;BME280;4991;43.566;27.820;2022-09-19T09:10:07;98729.84;;;17.35;64.83
9905;BME280;4991;43.566;27.820;2022-09-19T09:21:07;98723.78;;;17.84;62.79
9905;BME280;4991;43.566;27.820;2022-09-19T09:23:50;98712.97;;;18.23;60.18
9905;BME280;4991;43.566;27.820;2022-09-19T09:26:21;98712.69;;;19.09;56.90
9905;BME280;4991;43.566;27.820;2022-09-19T09:28:59;98719.06;;;21.32;50.84
9905;BME280;4991;43.566;27.820;2022-09-19T09:31:39;98712.31;;;22.83;47.46
9905;BME280;4991;43.566;27.820;2022-09-19T09:36:48;98698.94;;;25.15;39.02
9905;BME280;4991;43.566;27.820;2022-09-19T09:39:24;98710.16;;;24.73;38.67
9905;BME280;4991;43.566;27.820;2022-09-19T09:41:57;98690.94;;;25.38;36.07
9905;BME280;4991;43.566;27.820;2022-09-19T09:45:05;98696.19;;;25.04;35.12
9905;BME280;4991;43.566;27.820;2022-09-19T09:53:15;98691.06;;;24.82;34.88
9905;BME280;4991;43.566;27.820;2022-09-19T10:01:24;98675.44;;;28.52;30.00
9905;BME280;4991;43.566;27.820;2022-09-19T10:04:28;98671.84;;;28.51;30.55
9905;BME280;4991;43.566;27.820;2022-09-19T10:09:57;98678.72;;;26.93;30.83
9905;BME280;4991;43.566;27.820;2022-09-19T10:12:29;98674.66;;;27.68;29.39
9905;BME280;4991;43.566;27.820;2022-09-19T10:15:03;98673.91;;;27.94;29.93
9905;BME280;4991;43.566;27.820;2022-09-19T10:17:33;98690.06;;;27.16;30.42
9905;BME280;4991;43.566;27.820;2022-09-19T10:20:10;98679.00;;;26.61;29.81
9905;BME280;4991;43.566;27.820;2022-09-19T10:22:41;98686.25;;;26.51;28.92
9905;BME280;4991;43.566;27.820;2022-09-19T10:25:09;98672.94;;;27.10;29.85
9905;BME280;4991;43.566;27.820;2022-09-19T10:27:39;98674.38;;;27.25;28.57
9905;BME280;4991;43.566;27.820;2022-09-19T10:30:16;98674.16;;;27.09;29.09
9905;BME280;4991;43.566;27.820;2022-09-19T10:32:44;98671.34;;;27.76;28.44
9905;BME280;4991;43.566;27.820;2022-09-19T10:37:42;98670.38;;;29.71;26.49
9905;BME280;4991;43.566;27.820;2022-09-19T10:40:14;98667.38;;;30.94;24.67
9905;BME280;4991;43.566;27.820;2022-09-19T10:42:41;98663.13;;;32.01;24.51
9905;BME280;4991;43.566;27.820;2022-09-19T10:45:20;98668.66;;;31.22;23.64
9905;BME280;4991;43.566;27.820;2022-09-19T10:48:13;98664.13;;;30.15;25.19
9905;BME280;4991;43.566;27.820;2022-09-19T10:50:46;98659.47;;;30.89;23.88
9905;BME280;4991;43.566;27.820;2022-09-19T10:53:19;98669.47;;;28.50;25.95
9905;BME280;4991;43.566;27.820;2022-09-19T10:55:47;98662.31;;;28.45;26.93
9905;BME280;4991;43.566;27.820;2022-09-19T10:58:20;98654.28;;;28.93;25.67
9905;BME280;4991;43.566;27.820;2022-09-19T11:01:00;98649.50;;;27.95;26.78
9905;BME280;4991;43.566;27.820;2022-09-19T11:03:34;98647.50;;;27.95;27.02
9905;BME280;4991;43.566;27.820;2022-09-19T11:06:16;98642.25;;;28.50;25.87
9905;BME280;4991;43.566;27.820;2022-09-19T11:08:53;98631.19;;;29.64;24.76
9905;BME280;4991;43.566;27.820;2022-09-19T11:27:39;98617.22;;;31.75;21.97
9905;BME280;4991;43.566;27.820;2022-09-19T11:45:28;98600.78;;;32.24;21.00
9905;BME280;4991;43.566;27.820;2022-09-19T11:48:16;98605.72;;;32.92;21.09
9905;BME280;4991;43.566;27.820;2022-09-19T11:53:47;98588.78;;;34.27;20.08
9905;BME280;4991;43.566;27.820;2022-09-19T11:59:16;98597.53;;;35.41;18.43
9905;BME280;4991;43.566;27.820;2022-09-19T12:10:06;98584.75;;;33.66;18.82
9905;BME280;4991;43.566;27.820;2022-09-19T12:12:36;98582.75;;;33.45;19.17
9905;BME280;4991;43.566;27.820;2022-09-19T12:17:55;98585.09;;;33.99;18.88
9905;BME280;4991;43.566;27.820;2022-09-19T12:20:32;98570.34;;;35.07;18.16
9905;BME280;4991;43.566;27.820;2022-09-19T12:26:30;98574.88;;;35.91;17.37
9905;BME280;4991;43.566;27.820;2022-09-19T12:31:55;98567.25;;;36.77;16.42
9905;BME280;4991;43.566;27.820;2022-09-19T12:40:22;98572.38;;;35.93;16.84
9905;BME280;4991;43.566;27.820;2022-09-19T12:45:41;98560.47;;;34.18;18.69
9905;BME280;4991;43.566;27.820;2022-09-19T12:48:21;98565.22;;;34.30;19.23
9905;BME280;4991;43.566;27.820;2022-09-19T12:50:56;98563.47;;;34.23;18.11
9905;BME280;4991;43.566;27.820;2022-09-19T12:53:31;98562.94;;;35.09;17.51
9905;BME280;4991;43.566;27.820;2022-09-19T12:56:17;98557.88;;;35.82;17.77
9905;BME280;4991;43.566;27.820;2022-09-19T13:04:13;98553.84;;;35.65;16.64
9905;BME280;4991;43.566;27.820;2022-09-19T13:06:49;98556.72;;;36.78;16.57
9905;BME280;4991;43.566;27.820;2022-09-19T13:11:49;98541.16;;;38.04;15.35
9905;BME280;4991;43.566;27.820;2022-09-19T13:17:15;98553.66;;;36.10;16.08
9905;BME280;4991;43.566;27.820;2022-09-19T13:20:00;98547.13;;;36.28;15.59
9905;BME280;4991;43.566;27.820;2022-09-19T13:22:46;98535.81;;;36.19;15.48
9905;BME280;4991;43.566;27.820;2022-09-19T13:25:32;98530.31;;;36.48;16.07
9905;BME280;4991;43.566;27.820;2022-09-19T13:30:50;98523.56;;;36.84;15.82
9905;BME280;4991;43.566;27.820;2022-09-19T13:33:26;98519.69;;;36.72;15.43
9905;BME280;4991;43.566;27.820;2022-09-19T13:35:53;98514.50;;;36.33;15.03
9905;BME280;4991;43.566;27.820;2022-09-19T13:38:39;98509.78;;;37.06;15.14
9905;BME280;4991;43.566;27.820;2022-09-19T13:41:16;98515.09;;;38.46;14.58
9905;BME280;4991;43.566;27.820;2022-09-19T13:43:52;98513.66;;;35.34;15.93
9905;BME280;4991;43.566;27.820;2022-09-19T13:46:31;98508.88;;;34.71;16.33
9905;BME280;4991;43.566;27.820;2022-09-19T13:49:07;98515.56;;;35.28;16.33
9905;BME280;4991;43.566;27.820;2022-09-19T13:51:42;98514.22;;;35.56;16.12
9905;BME280;4991;43.566;27.820;2022-09-19T13:57:15;98506.00;;;35.67;16.02
9905;BME280;4991;43.566;27.820;2022-09-19T14:13:00;98496.63;;;37.23;14.84
9905;BME280;4991;43.566;27.820;2022-09-19T14:23:10;98496.00;;;36.37;14.87
9905;BME280;4991;43.566;27.820;2022-09-19T14:25:37;98494.59;;;35.85;15.28
9905;BME280;4991;43.566;27.820;2022-09-19T14:28:23;98489.78;;;33.60;16.31
9905;BME280;4991;43.566;27.820;2022-09-19T14:36:10;98498.53;;;30.98;18.31
9905;BME280;4991;43.566;27.820;2022-09-19T14:39:13;98497.31;;;30.42;18.50
9905;BME280;4991;43.566;27.820;2022-09-19T14:47:33;98495.66;;;30.28;18.99
9905;BME280;4991;43.566;27.820;2022-09-19T14:50:06;98494.69;;;30.79;18.54
9905;BME280;4991;43.566;27.820;2022-09-19T14:52:39;98489.72;;;30.26;18.66
9905;BME280;4991;43.566;27.820;2022-09-19T14:55:14;98492.31;;;30.17;19.43
9905;BME280;4991;43.566;27.820;2022-09-19T14:57:48;98489.06;;;30.18;18.99
9905;BME280;4991;43.566;27.820;2022-09-19T15:00:29;98493.78;;;29.05;20.09
9905;BME280;4991;43.566;27.820;2022-09-19T15:02:59;98494.00;;;28.13;27.01
9905;BME280;4991;43.566;27.820;2022-09-19T15:05:33;98489.47;;;27.50;29.54
9905;BME280;4991;43.566;27.820;2022-09-19T15:08:28;98489.06;;;26.61;33.05
9905;BME280;4991;43.566;27.820;2022-09-19T15:11:01;98477.88;;;26.24;35.75
9905;BME280;4991;43.566;27.820;2022-09-19T15:13:28;98480.34;;;26.18;38.25
9905;BME280;4991;43.566;27.820;2022-09-19T15:16:00;98487.72;;;25.47;41.85
9905;BME280;4991;43.566;27.820;2022-09-19T15:18:47;98484.50;;;24.90;44.66
9905;BME280;4991;43.566;27.820;2022-09-19T15:21:20;98478.25;;;24.55;48.32
9905;BME280;4991;43.566;27.820;2022-09-19T15:23:47;98480.34;;;24.23;50.83
9905;BME280;4991;43.566;27.820;2022-09-19T15:26:18;98478.78;;;23.65;54.11
9905;BME280;4991;43.566;27.820;2022-09-19T15:31:21;98481.84;;;22.97;59.11
9905;BME280;4991;43.566;27.820;2022-09-19T15:34:17;98483.19;;;22.35;63.95
9905;BME280;4991;43.566;27.820;2022-09-19T15:36:44;98486.69;;;22.25;65.70
9905;BME280;4991;43.566;27.820;2022-09-19T15:39:12;98490.94;;;22.05;63.20
9905;BME280;4991;43.566;27.820;2022-09-19T15:41:39;98486.81;;;21.85;65.00
9905;BME280;4991;43.566;27.820;2022-09-19T15:44:05;98491.63;;;21.44;66.57
9905;BME280;4991;43.566;27.820;2022-09-19T15:46:39;98489.19;;;20.99;69.73
9905;BME280;4991;43.566;27.820;2022-09-19T15:49:23;98485.44;;;20.84;71.11
9905;BME280;4991;43.566;27.820;2022-09-19T15:51:55;98495.06;;;20.61;74.07
9905;BME280;4991;43.566;27.820;2022-09-19T15:54:22;98499.41;;;20.32;77.95
9905;BME280;4991;43.566;27.820;2022-09-19T15:56:57;98495.22;;;20.15;77.37
9905;BME280;4991;43.566;27.820;2022-09-19T15:59:31;98492.22;;;20.01;78.86
9905;BME280;4991;43.566;27.820;2022-09-19T16:02:01;98493.72;;;19.95;78.51
9905;BME280;4991;43.566;27.820;2022-09-19T16:04:35;98493.78;;;19.73;80.68
9905;BME280;4991;43.566;27.820;2022-09-19T16:07:02;98485.94;;;19.52;83.30
9905;BME280;4991;43.566;27.820;2022-09-19T16:09:49;98488.88;;;19.40;86.60
9905;BME280;4991;43.566;27.820;2022-09-19T16:13:02;98490.88;;;19.20;90.28
9905;BME280;4991;43.566;27.820;2022-09-19T16:15:35;98499.97;;;18.98;94.69
9905;BME280;4991;43.566;27.820;2022-09-19T16:18:13;98500.66;;;18.95;94.39
9905;BME280;4991;43.566;27.820;2022-09-19T16:20:48;98504.59;;;18.75;98.48
9905;BME280;4991;43.566;27.820;2022-09-19T16:23:17;98503.47;;;18.57;100.00
9905;BME280;4991;43.566;27.820;2022-09-19T16:26:04;98511.16;;;18.48;100.00
9905;BME280;4991;43.566;27.820;2022-09-19T16:28:41;98509.00;;;18.23;100.00
9905;BME280;4991;43.566;27.820;2022-09-19T16:33:50;98512.88;;;18.02;100.00
9905;BME280;4991;43.566;27.820;2022-09-19T16:36:19;98518.06;;;17.88;100.00
9905;BME280;4991;43.566;27.820;2022-09-19T16:41:23;98514.69;;;17.79;100.00
9905;BME280;4991;43.566;27.820;2022-09-19T16:43:59;98514.72;;;17.64;100.00
9905;BME280;4991;43.566;27.820;2022-09-19T16:46:25;98523.56;;;17.42;100.00